sensor_id;sensor_type;location;lat;lon;timestamp;temperature;humidity
52575;DHT22;38468;48.114;-1.684;2022-09-17T00:00:51;16.50;55.50
52575;DHT22;38468;48.114;-1.684;2022-09-17T00:02:52;16.40;55.40
52575;DHT22;38468;48.114;-1.684;2022-09-17T00:04:55;16.40;55.40
52575;DHT22;38468;48.114;-1.684;2022-09-17T00:06:56;16.40;55.60
52575;DHT22;38468;48.114;-1.684;2022-09-17T00:08:56;16.40;55.50
52575;DHT22;38468;48.114;-1.684;2022-09-17T00:10:57;16.40;55.60
52575;DHT22;38468;48.114;-1.684;2022-09-17T00:12:58;16.40;55.80
52575;DHT22;38468;48.114;-1.684;2022-09-17T00:14:59;16.40;55.90
52575;DHT22;38468;48.114;-1.684;2022-09-17T00:16:59;16.30;56.20
52575;DHT22;38468;48.114;-1.684;2022-09-17T00:19:01;16.20;56.40
52575;DHT22;38468;48.114;-1.684;2022-09-17T00:21:02;16.10;56.30
52575;DHT22;38468;48.114;-1.684;2022-09-17T00:23:03;16.10;56.40
52575;DHT22;38468;48.114;-1.684;2022-09-17T00:25:05;16.10;56.80
52575;DHT22;38468;48.114;-1.684;2022-09-17T00:27:06;16.10;56.60
52575;DHT22;38468;48.114;-1.684;2022-09-17T00:29:07;16.10;56.80
52575;DHT22;38468;48.114;-1.684;2022-09-17T00:31:09;16.20;57.30
52575;DHT22;38468;48.114;-1.684;2022-09-17T00:33:11;16.00;57.10
52575;DHT22;38468;48.114;-1.684;2022-09-17T00:35:12;16.00;57.30
52575;DHT22;38468;48.114;-1.684;2022-09-17T00:37:13;16.00;57.30
52575;DHT22;38468;48.114;-1.684;2022-09-17T00:39:14;16.00;57.50
52575;DHT22;38468;48.114;-1.684;2022-09-17T00:41:15;16.00;57.20
52575;DHT22;38468;48.114;-1.684;2022-09-17T00:43:55;16.00;57.30
52575;DHT22;38468;48.114;-1.684;2022-09-17T00:45:57;16.00;57.10
52575;DHT22;38468;48.114;-1.684;2022-09-17T00:48:03;15.90;57.00
52575;DHT22;38468;48.114;-1.684;2022-09-17T00:50:28;15.90;57.10
52575;DHT22;38468;48.114;-1.684;2022-09-17T00:52:44;15.90;57.10
52575;DHT22;38468;48.114;-1.684;2022-09-17T00:54:53;15.90;57.00
52575;DHT22;38468;48.114;-1.684;2022-09-17T00:56:56;15.80;57.60
52575;DHT22;38468;48.114;-1.684;2022-09-17T00:58:57;15.80;57.40
52575;DHT22;38468;48.114;-1.684;2022-09-17T01:01:00;15.80;57.40
52575;DHT22;38468;48.114;-1.684;2022-09-17T01:03:01;15.90;57.30
52575;DHT22;38468;48.114;-1.684;2022-09-17T01:05:01;15.90;57.20
52575;DHT22;38468;48.114;-1.684;2022-09-17T01:09:56;15.80;57.40
52575;DHT22;38468;48.114;-1.684;2022-09-17T01:14:38;15.70;57.60
52575;DHT22;38468;48.114;-1.684;2022-09-17T01:21:37;15.70;57.70
52575;DHT22;38468;48.114;-1.684;2022-09-17T01:31:28;15.50;58.30
52575;DHT22;38468;48.114;-1.684;2022-09-17T01:35:52;15.50;58.30
52575;DHT22;38468;48.114;-1.684;2022-09-17T01:42:36;15.60;58.30
52575;DHT22;38468;48.114;-1.684;2022-09-17T01:46:53;15.50;58.60
52575;DHT22;38468;48.114;-1.684;2022-09-17T01:48:58;15.50;58.60
52575;DHT22;38468;48.114;-1.684;2022-09-17T01:51:09;15.50;58.50
52575;DHT22;38468;48.114;-1.684;2022-09-17T01:53:11;15.50;58.60
52575;DHT22;38468;48.114;-1.684;2022-09-17T01:55:15;15.50;58.70
52575;DHT22;38468;48.114;-1.684;2022-09-17T01:59:56;15.40;58.70
52575;DHT22;38468;48.114;-1.684;2022-09-17T02:02:21;15.50;58.60
52575;DHT22;38468;48.114;-1.684;2022-09-17T02:04:31;15.50;58.40
52575;DHT22;38468;48.114;-1.684;2022-09-17T02:06:37;15.40;58.50
52575;DHT22;38468;48.114;-1.684;2022-09-17T02:08:42;15.40;58.60
52575;DHT22;38468;48.114;-1.684;2022-09-17T02:13:13;15.30;59.00
52575;DHT22;38468;48.114;-1.684;2022-09-17T02:15:26;15.10;59.40
52575;DHT22;38468;48.114;-1.684;2022-09-17T02:17:31;15.00;59.50
52575;DHT22;38468;48.114;-1.684;2022-09-17T02:19:36;15.00;59.60
52575;DHT22;38468;48.114;-1.684;2022-09-17T02:22:02;15.10;59.40
52575;DHT22;38468;48.114;-1.684;2022-09-17T02:24:28;15.10;59.20
52575;DHT22;38468;48.114;-1.684;2022-09-17T02:26:32;15.20;59.10
52575;DHT22;38468;48.114;-1.684;2022-09-17T02:28:40;15.20;59.10
52575;DHT22;38468;48.114;-1.684;2022-09-17T02:30:42;15.10;59.20
52575;DHT22;38468;48.114;-1.684;2022-09-17T02:32:43;15.10;59.50
52575;DHT22;38468;48.114;-1.684;2022-09-17T02:34:44;14.90;59.70
52575;DHT22;38468;48.114;-1.684;2022-09-17T02:36:45;14.80;59.90
52575;DHT22;38468;48.114;-1.684;2022-09-17T02:38:46;14.80;59.70
52575;DHT22;38468;48.114;-1.684;2022-09-17T02:40:50;14.90;59.70
52575;DHT22;38468;48.114;-1.684;2022-09-17T02:50:11;14.90;59.90
52575;DHT22;38468;48.114;-1.684;2022-09-17T02:57:33;14.90;60.10
52575;DHT22;38468;48.114;-1.684;2022-09-17T03:01:50;14.70;60.40
52575;DHT22;38468;48.114;-1.684;2022-09-17T03:03:53;14.70;60.40
52575;DHT22;38468;48.114;-1.684;2022-09-17T03:05:56;14.70;60.50
52575;DHT22;38468;48.114;-1.684;2022-09-17T03:07:59;14.80;60.40
52575;DHT22;38468;48.114;-1.684;2022-09-17T03:10:00;14.90;60.30
52575;DHT22;38468;48.114;-1.684;2022-09-17T03:12:00;14.90;60.10
52575;DHT22;38468;48.114;-1.684;2022-09-17T03:14:02;14.80;60.40
52575;DHT22;38468;48.114;-1.684;2022-09-17T03:16:04;14.50;61.00
52575;DHT22;38468;48.114;-1.684;2022-09-17T03:18:05;14.50;61.50
52575;DHT22;38468;48.114;-1.684;2022-09-17T03:20:06;14.40;61.80
52575;DHT22;38468;48.114;-1.684;2022-09-17T03:22:07;14.40;61.60
52575;DHT22;38468;48.114;-1.684;2022-09-17T03:24:08;14.40;61.20
52575;DHT22;38468;48.114;-1.684;2022-09-17T03:26:10;14.40;61.30
52575;DHT22;38468;48.114;-1.684;2022-09-17T03:28:12;14.40;61.30
52575;DHT22;38468;48.114;-1.684;2022-09-17T03:30:12;14.50;61.30
52575;DHT22;38468;48.114;-1.684;2022-09-17T03:32:13;14.50;61.20
52575;DHT22;38468;48.114;-1.684;2022-09-17T03:34:14;14.50;61.10
52575;DHT22;38468;48.114;-1.684;2022-09-17T03:36:14;14.50;61.30
52575;DHT22;38468;48.114;-1.684;2022-09-17T03:38:15;14.40;61.40
52575;DHT22;38468;48.114;-1.684;2022-09-17T03:40:16;14.20;62.10
52575;DHT22;38468;48.114;-1.684;2022-09-17T03:42:18;14.00;62.30
52575;DHT22;38468;48.114;-1.684;2022-09-17T03:44:19;14.00;62.20
52575;DHT22;38468;48.114;-1.684;2022-09-17T03:46:22;14.10;62.10
52575;DHT22;38468;48.114;-1.684;2022-09-17T03:48:23;14.20;62.30
52575;DHT22;38468;48.114;-1.684;2022-09-17T03:50:24;14.20;62.30
52575;DHT22;38468;48.114;-1.684;2022-09-17T03:52:24;14.30;61.90
52575;DHT22;38468;48.114;-1.684;2022-09-17T03:54:25;14.30;62.00
52575;DHT22;38468;48.114;-1.684;2022-09-17T03:56:26;14.30;62.00
52575;DHT22;38468;48.114;-1.684;2022-09-17T03:58:28;14.10;62.20
52575;DHT22;38468;48.114;-1.684;2022-09-17T04:00:29;14.10;62.20
52575;DHT22;38468;48.114;-1.684;2022-09-17T04:02:30;14.10;62.30
52575;DHT22;38468;48.114;-1.684;2022-09-17T04:04:31;14.10;62.30
52575;DHT22;38468;48.114;-1.684;2022-09-17T04:06:32;14.20;62.30
52575;DHT22;38468;48.114;-1.684;2022-09-17T04:08:32;14.10;62.50
52575;DHT22;38468;48.114;-1.684;2022-09-17T04:10:33;14.00;62.50
52575;DHT22;38468;48.114;-1.684;2022-09-17T04:12:34;14.00;62.40
52575;DHT22;38468;48.114;-1.684;2022-09-17T04:14:34;14.00;62.40
52575;DHT22;38468;48.114;-1.684;2022-09-17T04:16:35;14.10;62.40
52575;DHT22;38468;48.114;-1.684;2022-09-17T04:18:36;14.00;62.50
52575;DHT22;38468;48.114;-1.684;2022-09-17T04:20:36;14.10;62.50
52575;DHT22;38468;48.114;-1.684;2022-09-17T04:22:37;13.90;63.00
52575;DHT22;38468;48.114;-1.684;2022-09-17T04:24:38;13.70;62.90
52575;DHT22;38468;48.114;-1.684;2022-09-17T04:26:38;13.70;63.10
52575;DHT22;38468;48.114;-1.684;2022-09-17T04:28:39;13.70;63.10
52575;DHT22;38468;48.114;-1.684;2022-09-17T04:30:40;13.70;63.10
52575;DHT22;38468;48.114;-1.684;2022-09-17T04:32:43;13.80;63.10
52575;DHT22;38468;48.114;-1.684;2022-09-17T04:34:44;13.80;63.20
52575;DHT22;38468;48.114;-1.684;2022-09-17T04:36:44;13.80;63.20
52575;DHT22;38468;48.114;-1.684;2022-09-17T04:38:48;13.80;63.10
52575;DHT22;38468;48.114;-1.684;2022-09-17T04:40:49;13.80;63.00
52575;DHT22;38468;48.114;-1.684;2022-09-17T04:42:54;13.70;63.20
52575;DHT22;38468;48.114;-1.684;2022-09-17T04:44:55;13.70;63.20
52575;DHT22;38468;48.114;-1.684;2022-09-17T04:46:57;13.70;63.30
52575;DHT22;38468;48.114;-1.684;2022-09-17T04:48:57;13.70;63.40
52575;DHT22;38468;48.114;-1.684;2022-09-17T04:50:58;13.70;63.40
52575;DHT22;38468;48.114;-1.684;2022-09-17T04:52:59;13.70;63.50
52575;DHT22;38468;48.114;-1.684;2022-09-17T04:54:59;13.80;63.40
52575;DHT22;38468;48.114;-1.684;2022-09-17T04:57:00;13.80;63.30
52575;DHT22;38468;48.114;-1.684;2022-09-17T04:59:01;13.80;63.20
52575;DHT22;38468;48.114;-1.684;2022-09-17T05:01:02;13.80;63.00
52575;DHT22;38468;48.114;-1.684;2022-09-17T05:03:02;13.80;63.00
52575;DHT22;38468;48.114;-1.684;2022-09-17T05:05:03;13.80;63.10
52575;DHT22;38468;48.114;-1.684;2022-09-17T05:07:04;13.70;63.30
52575;DHT22;38468;48.114;-1.684;2022-09-17T05:09:05;13.60;63.50
52575;DHT22;38468;48.114;-1.684;2022-09-17T05:11:06;13.60;63.50
52575;DHT22;38468;48.114;-1.684;2022-09-17T05:13:06;13.50;63.40
52575;DHT22;38468;48.114;-1.684;2022-09-17T05:15:07;13.50;63.40
52575;DHT22;38468;48.114;-1.684;2022-09-17T05:17:08;13.50;63.50
52575;DHT22;38468;48.114;-1.684;2022-09-17T05:19:09;13.50;63.50
52575;DHT22;38468;48.114;-1.684;2022-09-17T05:21:09;13.50;63.30
52575;DHT22;38468;48.114;-1.684;2022-09-17T05:23:10;13.50;63.30
52575;DHT22;38468;48.114;-1.684;2022-09-17T05:25:12;13.50;63.30
52575;DHT22;38468;48.114;-1.684;2022-09-17T05:27:13;13.50;63.00
52575;DHT22;38468;48.114;-1.684;2022-09-17T05:29:13;13.40;63.20
52575;DHT22;38468;48.114;-1.684;2022-09-17T05:31:14;13.40;63.10
52575;DHT22;38468;48.114;-1.684;2022-09-17T05:33:15;13.40;63.20
52575;DHT22;38468;48.114;-1.684;2022-09-17T05:35:16;13.40;62.90
52575;DHT22;38468;48.114;-1.684;2022-09-17T05:37:16;13.30;63.20
52575;DHT22;38468;48.114;-1.684;2022-09-17T05:39:17;13.30;63.30
52575;DHT22;38468;48.114;-1.684;2022-09-17T05:41:20;13.30;63.50
52575;DHT22;38468;48.114;-1.684;2022-09-17T05:43:20;13.20;63.40
52575;DHT22;38468;48.114;-1.684;2022-09-17T05:45:21;13.20;63.30
52575;DHT22;38468;48.114;-1.684;2022-09-17T05:47:22;13.10;64.00
52575;DHT22;38468;48.114;-1.684;2022-09-17T05:49:22;13.00;63.90
52575;DHT22;38468;48.114;-1.684;2022-09-17T05:51:23;13.00;64.00
52575;DHT22;38468;48.114;-1.684;2022-09-17T05:53:24;13.00;63.90
52575;DHT22;38468;48.114;-1.684;2022-09-17T05:55:25;13.00;63.90
52575;DHT22;38468;48.114;-1.684;2022-09-17T05:57:28;13.10;64.10
52575;DHT22;38468;48.114;-1.684;2022-09-17T05:59:29;13.20;63.80
52575;DHT22;38468;48.114;-1.684;2022-09-17T06:01:31;13.20;63.80
52575;DHT22;38468;48.114;-1.684;2022-09-17T06:03:31;13.30;63.70
52575;DHT22;38468;48.114;-1.684;2022-09-17T06:05:32;13.30;63.70
52575;DHT22;38468;48.114;-1.684;2022-09-17T06:07:36;13.30;63.60
52575;DHT22;38468;48.114;-1.684;2022-09-17T06:09:37;13.30;63.80
52575;DHT22;38468;48.114;-1.684;2022-09-17T06:11:39;13.30;63.80
52575;DHT22;38468;48.114;-1.684;2022-09-17T06:13:40;13.30;63.60
52575;DHT22;38468;48.114;-1.684;2022-09-17T06:15:47;13.20;63.60
52575;DHT22;38468;48.114;-1.684;2022-09-17T06:17:48;13.30;63.80
52575;DHT22;38468;48.114;-1.684;2022-09-17T06:19:49;13.20;63.80
52575;DHT22;38468;48.114;-1.684;2022-09-17T06:21:49;13.30;63.90
52575;DHT22;38468;48.114;-1.684;2022-09-17T06:23:50;13.40;63.90
52575;DHT22;38468;48.114;-1.684;2022-09-17T06:25:53;13.40;63.90
52575;DHT22;38468;48.114;-1.684;2022-09-17T06:27:54;13.50;63.70
52575;DHT22;38468;48.114;-1.684;2022-09-17T06:29:55;13.50;63.80
52575;DHT22;38468;48.114;-1.684;2022-09-17T06:31:55;13.60;63.90
52575;DHT22;38468;48.114;-1.684;2022-09-17T06:33:56;13.50;63.70
52575;DHT22;38468;48.114;-1.684;2022-09-17T06:36:02;13.50;63.90
52575;DHT22;38468;48.114;-1.684;2022-09-17T06:38:04;13.40;64.00
52575;DHT22;38468;48.114;-1.684;2022-09-17T06:40:06;13.50;64.10
52575;DHT22;38468;48.114;-1.684;2022-09-17T06:42:07;13.50;64.00
52575;DHT22;38468;48.114;-1.684;2022-09-17T06:44:08;13.50;64.00
52575;DHT22;38468;48.114;-1.684;2022-09-17T06:46:09;13.60;64.00
52575;DHT22;38468;48.114;-1.684;2022-09-17T06:48:10;13.60;63.90
52575;DHT22;38468;48.114;-1.684;2022-09-17T06:50:11;13.60;63.70
52575;DHT22;38468;48.114;-1.684;2022-09-17T06:52:11;13.50;63.90
52575;DHT22;38468;48.114;-1.684;2022-09-17T06:54:12;13.50;64.10
52575;DHT22;38468;48.114;-1.684;2022-09-17T06:56:13;13.60;64.20
52575;DHT22;38468;48.114;-1.684;2022-09-17T06:58:14;13.70;64.10
52575;DHT22;38468;48.114;-1.684;2022-09-17T07:00:14;13.80;64.00
52575;DHT22;38468;48.114;-1.684;2022-09-17T07:02:15;13.90;63.90
52575;DHT22;38468;48.114;-1.684;2022-09-17T07:04:16;14.00;63.90
52575;DHT22;38468;48.114;-1.684;2022-09-17T07:06:18;14.00;63.90
52575;DHT22;38468;48.114;-1.684;2022-09-17T07:08:18;14.00;64.00
52575;DHT22;38468;48.114;-1.684;2022-09-17T07:10:20;14.20;63.90
52575;DHT22;38468;48.114;-1.684;2022-09-17T07:12:24;14.20;63.60
52575;DHT22;38468;48.114;-1.684;2022-09-17T07:14:24;14.20;63.80
52575;DHT22;38468;48.114;-1.684;2022-09-17T07:16:25;14.40;63.70
52575;DHT22;38468;48.114;-1.684;2022-09-17T07:18:26;14.50;63.60
52575;DHT22;38468;48.114;-1.684;2022-09-17T07:20:27;14.60;63.10
52575;DHT22;38468;48.114;-1.684;2022-09-17T07:22:27;14.60;63.00
52575;DHT22;38468;48.114;-1.684;2022-09-17T07:24:28;14.80;63.00
52575;DHT22;38468;48.114;-1.684;2022-09-17T07:26:29;14.80;62.70
52575;DHT22;38468;48.114;-1.684;2022-09-17T07:28:30;14.90;62.80
52575;DHT22;38468;48.114;-1.684;2022-09-17T07:30:31;15.00;63.10
52575;DHT22;38468;48.114;-1.684;2022-09-17T07:32:32;15.20;63.10
52575;DHT22;38468;48.114;-1.684;2022-09-17T07:34:32;15.40;62.40
52575;DHT22;38468;48.114;-1.684;2022-09-17T07:36:33;15.60;63.00
52575;DHT22;38468;48.114;-1.684;2022-09-17T07:38:34;15.80;62.20
52575;DHT22;38468;48.114;-1.684;2022-09-17T07:40:34;16.10;62.00
52575;DHT22;38468;48.114;-1.684;2022-09-17T07:42:35;16.50;63.00
52575;DHT22;38468;48.114;-1.684;2022-09-17T07:44:36;16.90;61.70
52575;DHT22;38468;48.114;-1.684;2022-09-17T07:46:37;17.00;61.70
52575;DHT22;38468;48.114;-1.684;2022-09-17T07:48:37;17.40;61.80
52575;DHT22;38468;48.114;-1.684;2022-09-17T07:50:38;18.00;61.70
52575;DHT22;38468;48.114;-1.684;2022-09-17T07:52:47;18.60;61.60
52575;DHT22;38468;48.114;-1.684;2022-09-17T07:54:48;19.00;60.60
52575;DHT22;38468;48.114;-1.684;2022-09-17T07:56:48;19.30;59.10
52575;DHT22;38468;48.114;-1.684;2022-09-17T07:58:50;19.50;57.70
52575;DHT22;38468;48.114;-1.684;2022-09-17T08:00:50;19.80;58.30
52575;DHT22;38468;48.114;-1.684;2022-09-17T08:02:54;20.00;58.30
52575;DHT22;38468;48.114;-1.684;2022-09-17T08:04:55;19.70;54.70
52575;DHT22;38468;48.114;-1.684;2022-09-17T08:06:56;19.70;55.10
52575;DHT22;38468;48.114;-1.684;2022-09-17T08:08:58;19.90;57.10
52575;DHT22;38468;48.114;-1.684;2022-09-17T08:13:08;20.60;53.50
52575;DHT22;38468;48.114;-1.684;2022-09-17T08:15:09;20.10;53.10
52575;DHT22;38468;48.114;-1.684;2022-09-17T08:17:09;20.20;55.10
52575;DHT22;38468;48.114;-1.684;2022-09-17T08:19:10;20.50;55.20
52575;DHT22;38468;48.114;-1.684;2022-09-17T08:21:13;20.60;52.20
52575;DHT22;38468;48.114;-1.684;2022-09-17T08:23:14;20.40;53.20
52575;DHT22;38468;48.114;-1.684;2022-09-17T08:25:14;20.40;50.40
52575;DHT22;38468;48.114;-1.684;2022-09-17T08:27:15;20.10;50.90
52575;DHT22;38468;48.114;-1.684;2022-09-17T08:29:16;20.00;51.30
52575;DHT22;38468;48.114;-1.684;2022-09-17T08:31:18;20.00;50.90
52575;DHT22;38468;48.114;-1.684;2022-09-17T08:33:19;19.90;49.70
52575;DHT22;38468;48.114;-1.684;2022-09-17T08:35:20;19.80;50.60
52575;DHT22;38468;48.114;-1.684;2022-09-17T08:37:20;19.70;49.90
52575;DHT22;38468;48.114;-1.684;2022-09-17T08:39:21;19.70;49.80
52575;DHT22;38468;48.114;-1.684;2022-09-17T08:41:47;19.50;48.70
52575;DHT22;38468;48.114;-1.684;2022-09-17T08:46:08;19.50;49.20
52575;DHT22;38468;48.114;-1.684;2022-09-17T08:48:12;19.70;50.00
52575;DHT22;38468;48.114;-1.684;2022-09-17T08:50:26;19.90;49.50
52575;DHT22;38468;48.114;-1.684;2022-09-17T08:59:40;20.00;48.60
52575;DHT22;38468;48.114;-1.684;2022-09-17T09:01:59;20.00;48.60
52575;DHT22;38468;48.114;-1.684;2022-09-17T09:06:28;20.40;47.30
52575;DHT22;38468;48.114;-1.684;2022-09-17T09:08:40;20.50;47.50
52575;DHT22;38468;48.114;-1.684;2022-09-17T09:10:48;20.60;47.60
52575;DHT22;38468;48.114;-1.684;2022-09-17T09:12:51;20.80;46.60
52575;DHT22;38468;48.114;-1.684;2022-09-17T09:14:59;20.80;47.10
52575;DHT22;38468;48.114;-1.684;2022-09-17T09:17:05;21.00;46.40
52575;DHT22;38468;48.114;-1.684;2022-09-17T09:19:19;21.10;46.50
52575;DHT22;38468;48.114;-1.684;2022-09-17T09:24:12;21.10;44.60
52575;DHT22;38468;48.114;-1.684;2022-09-17T09:26:21;21.10;45.10
52575;DHT22;38468;48.114;-1.684;2022-09-17T09:31:15;21.30;43.90
52575;DHT22;38468;48.114;-1.684;2022-09-17T09:33:29;21.00;43.80
52575;DHT22;38468;48.114;-1.684;2022-09-17T09:35:32;21.30;43.80
52575;DHT22;38468;48.114;-1.684;2022-09-17T09:37:33;21.50;44.40
52575;DHT22;38468;48.114;-1.684;2022-09-17T09:39:37;21.70;43.80
52575;DHT22;38468;48.114;-1.684;2022-09-17T09:41:52;21.70;42.70
52575;DHT22;38468;48.114;-1.684;2022-09-17T09:44:01;21.80;41.90
52575;DHT22;38468;48.114;-1.684;2022-09-17T09:46:36;21.70;40.50
52575;DHT22;38468;48.114;-1.684;2022-09-17T09:51:06;21.90;41.60
52575;DHT22;38468;48.114;-1.684;2022-09-17T09:57:58;22.10;41.20
52575;DHT22;38468;48.114;-1.684;2022-09-17T10:00:25;22.20;39.80
52575;DHT22;38468;48.114;-1.684;2022-09-17T10:02:27;22.00;39.50
52575;DHT22;38468;48.114;-1.684;2022-09-17T10:04:28;21.90;38.50
52575;DHT22;38468;48.114;-1.684;2022-09-17T10:06:30;21.80;39.50
52575;DHT22;38468;48.114;-1.684;2022-09-17T10:08:36;21.70;39.70
52575;DHT22;38468;48.114;-1.684;2022-09-17T10:10:56;21.90;39.70
52575;DHT22;38468;48.114;-1.684;2022-09-17T10:13:06;22.00;38.70
52575;DHT22;38468;48.114;-1.684;2022-09-17T10:15:25;22.00;38.40
52575;DHT22;38468;48.114;-1.684;2022-09-17T10:17:27;22.20;39.20
52575;DHT22;38468;48.114;-1.684;2022-09-17T10:19:28;22.40;39.20
52575;DHT22;38468;48.114;-1.684;2022-09-17T10:21:34;22.70;38.10
52575;DHT22;38468;48.114;-1.684;2022-09-17T10:23:39;22.70;37.10
52575;DHT22;38468;48.114;-1.684;2022-09-17T10:25:43;22.40;36.80
52575;DHT22;38468;48.114;-1.684;2022-09-17T10:27:44;22.30;37.70
52575;DHT22;38468;48.114;-1.684;2022-09-17T10:32:04;22.40;37.20
52575;DHT22;38468;48.114;-1.684;2022-09-17T10:34:21;22.40;36.50
52575;DHT22;38468;48.114;-1.684;2022-09-17T10:38:40;22.70;36.80
52575;DHT22;38468;48.114;-1.684;2022-09-17T10:40:41;22.80;36.40
52575;DHT22;38468;48.114;-1.684;2022-09-17T10:42:42;23.00;36.20
52575;DHT22;38468;48.114;-1.684;2022-09-17T10:46:51;23.20;36.90
52575;DHT22;38468;48.114;-1.684;2022-09-17T10:48:56;23.30;36.50
52575;DHT22;38468;48.114;-1.684;2022-09-17T10:50:59;23.60;36.60
52575;DHT22;38468;48.114;-1.684;2022-09-17T10:53:05;23.60;34.30
52575;DHT22;38468;48.114;-1.684;2022-09-17T10:57:55;23.50;35.40
52575;DHT22;38468;48.114;-1.684;2022-09-17T11:00:16;23.60;34.30
52575;DHT22;38468;48.114;-1.684;2022-09-17T11:07:28;23.40;34.00
52575;DHT22;38468;48.114;-1.684;2022-09-17T11:09:55;23.50;34.50
52575;DHT22;38468;48.114;-1.684;2022-09-17T11:17:05;23.50;33.70
52575;DHT22;38468;48.114;-1.684;2022-09-17T11:21:45;23.70;34.00
52575;DHT22;38468;48.114;-1.684;2022-09-17T11:31:24;24.20;32.70
52575;DHT22;38468;48.114;-1.684;2022-09-17T11:35:58;24.10;33.20
52575;DHT22;38468;48.114;-1.684;2022-09-17T11:42:17;24.50;32.30
52575;DHT22;38468;48.114;-1.684;2022-09-17T11:44:42;24.60;32.90
52575;DHT22;38468;48.114;-1.684;2022-09-17T11:46:52;24.60;32.30
52575;DHT22;38468;48.114;-1.684;2022-09-17T11:49:05;24.50;32.50
52575;DHT22;38468;48.114;-1.684;2022-09-17T11:51:26;24.50;32.40
52575;DHT22;38468;48.114;-1.684;2022-09-17T11:53:56;24.40;31.60
52575;DHT22;38468;48.114;-1.684;2022-09-17T11:56:02;24.30;32.60
52575;DHT22;38468;48.114;-1.684;2022-09-17T12:00:35;24.50;31.80
52575;DHT22;38468;48.114;-1.684;2022-09-17T12:02:50;24.50;31.60
52575;DHT22;38468;48.114;-1.684;2022-09-17T12:05:06;24.70;31.70
52575;DHT22;38468;48.114;-1.684;2022-09-17T12:09:31;24.90;31.40
52575;DHT22;38468;48.114;-1.684;2022-09-17T12:11:39;24.70;31.40
52575;DHT22;38468;48.114;-1.684;2022-09-17T12:15:50;25.00;30.80
52575;DHT22;38468;48.114;-1.684;2022-09-17T12:20:05;24.80;30.10
52575;DHT22;38468;48.114;-1.684;2022-09-17T12:22:25;25.00;30.30
52575;DHT22;38468;48.114;-1.684;2022-09-17T12:24:28;25.20;30.70
52575;DHT22;38468;48.114;-1.684;2022-09-17T12:31:08;25.40;30.10
52575;DHT22;38468;48.114;-1.684;2022-09-17T12:40:42;25.40;30.30
52575;DHT22;38468;48.114;-1.684;2022-09-17T12:54:39;25.50;29.90
52575;DHT22;38468;48.114;-1.684;2022-09-17T12:59:02;25.60;29.80
52575;DHT22;38468;48.114;-1.684;2022-09-17T13:01:18;25.80;29.50
52575;DHT22;38468;48.114;-1.684;2022-09-17T13:03:28;25.80;29.60
52575;DHT22;38468;48.114;-1.684;2022-09-17T13:18:12;26.70;29.30
52575;DHT22;38468;48.114;-1.684;2022-09-17T13:20:29;26.80;29.10
52575;DHT22;38468;48.114;-1.684;2022-09-17T13:22:32;26.90;29.20
52575;DHT22;38468;48.114;-1.684;2022-09-17T13:24:43;27.00;28.60
52575;DHT22;38468;48.114;-1.684;2022-09-17T13:26:46;27.00;28.40
52575;DHT22;38468;48.114;-1.684;2022-09-17T13:28:48;27.00;28.20
52575;DHT22;38468;48.114;-1.684;2022-09-17T13:31:00;26.60;28.40
52575;DHT22;38468;48.114;-1.684;2022-09-17T13:33:01;26.60;28.10
52575;DHT22;38468;48.114;-1.684;2022-09-17T13:37:20;26.90;27.10
52575;DHT22;38468;48.114;-1.684;2022-09-17T13:39:47;26.80;27.80
52575;DHT22;38468;48.114;-1.684;2022-09-17T13:42:00;26.60;27.50
52575;DHT22;38468;48.114;-1.684;2022-09-17T13:44:04;26.70;26.90
52575;DHT22;38468;48.114;-1.684;2022-09-17T13:46:07;26.60;27.00
52575;DHT22;38468;48.114;-1.684;2022-09-17T13:48:10;26.60;27.90
52575;DHT22;38468;48.114;-1.684;2022-09-17T13:50:29;26.60;27.50
52575;DHT22;38468;48.114;-1.684;2022-09-17T13:52:44;26.60;27.60
52575;DHT22;38468;48.114;-1.684;2022-09-17T13:54:46;26.80;27.70
52575;DHT22;38468;48.114;-1.684;2022-09-17T13:57:09;26.70;27.30
52575;DHT22;38468;48.114;-1.684;2022-09-17T13:59:25;26.50;27.30
52575;DHT22;38468;48.114;-1.684;2022-09-17T14:10:44;26.30;27.10
52575;DHT22;38468;48.114;-1.684;2022-09-17T14:12:50;26.20;27.30
52575;DHT22;38468;48.114;-1.684;2022-09-17T14:14:51;26.50;27.20
52575;DHT22;38468;48.114;-1.684;2022-09-17T14:16:52;26.60;27.10
52575;DHT22;38468;48.114;-1.684;2022-09-17T14:21:22;26.30;27.30
52575;DHT22;38468;48.114;-1.684;2022-09-17T14:23:24;26.20;27.10
52575;DHT22;38468;48.114;-1.684;2022-09-17T14:25:39;26.10;27.30
52575;DHT22;38468;48.114;-1.684;2022-09-17T14:30:16;26.10;27.30
52575;DHT22;38468;48.114;-1.684;2022-09-17T14:34:50;26.20;27.70
52575;DHT22;38468;48.114;-1.684;2022-09-17T14:36:51;26.50;26.70
52575;DHT22;38468;48.114;-1.684;2022-09-17T14:38:55;26.40;27.10
52575;DHT22;38468;48.114;-1.684;2022-09-17T14:41:05;26.60;27.10
52575;DHT22;38468;48.114;-1.684;2022-09-17T14:43:26;26.90;27.10
52575;DHT22;38468;48.114;-1.684;2022-09-17T14:45:40;26.90;26.70
52575;DHT22;38468;48.114;-1.684;2022-09-17T14:47:41;26.70;26.70
52575;DHT22;38468;48.114;-1.684;2022-09-17T14:49:42;26.60;26.90
52575;DHT22;38468;48.114;-1.684;2022-09-17T14:51:42;26.50;26.80
52575;DHT22;38468;48.114;-1.684;2022-09-17T14:53:48;26.50;26.80
52575;DHT22;38468;48.114;-1.684;2022-09-17T14:55:49;26.50;27.00
52575;DHT22;38468;48.114;-1.684;2022-09-17T14:57:55;26.10;27.10
52575;DHT22;38468;48.114;-1.684;2022-09-17T14:59:56;26.10;27.10
52575;DHT22;38468;48.114;-1.684;2022-09-17T15:01:57;25.90;27.50
52575;DHT22;38468;48.114;-1.684;2022-09-17T15:06:21;25.90;27.60
52575;DHT22;38468;48.114;-1.684;2022-09-17T15:08:24;26.00;27.60
52575;DHT22;38468;48.114;-1.684;2022-09-17T15:10:25;25.80;27.60
52575;DHT22;38468;48.114;-1.684;2022-09-17T15:12:28;25.70;27.60
52575;DHT22;38468;48.114;-1.684;2022-09-17T15:14:35;25.70;27.40
52575;DHT22;38468;48.114;-1.684;2022-09-17T15:16:46;25.90;27.60
52575;DHT22;38468;48.114;-1.684;2022-09-17T15:19:08;26.00;27.30
52575;DHT22;38468;48.114;-1.684;2022-09-17T15:21:40;25.90;27.50
52575;DHT22;38468;48.114;-1.684;2022-09-17T15:23:39;26.00;27.40
52575;DHT22;38468;48.114;-1.684;2022-09-17T15:25:41;26.00;27.10
52575;DHT22;38468;48.114;-1.684;2022-09-17T15:27:44;26.00;26.80
52575;DHT22;38468;48.114;-1.684;2022-09-17T15:29:59;26.00;26.90
52575;DHT22;38468;48.114;-1.684;2022-09-17T15:32:03;26.00;26.90
52575;DHT22;38468;48.114;-1.684;2022-09-17T15:34:04;25.80;26.90
52575;DHT22;38468;48.114;-1.684;2022-09-17T15:36:24;25.80;26.80
52575;DHT22;38468;48.114;-1.684;2022-09-17T15:38:28;25.70;26.80
52575;DHT22;38468;48.114;-1.684;2022-09-17T15:40:35;25.60;27.10
52575;DHT22;38468;48.114;-1.684;2022-09-17T15:42:37;25.60;27.00
52575;DHT22;38468;48.114;-1.684;2022-09-17T15:44:37;25.60;26.90
52575;DHT22;38468;48.114;-1.684;2022-09-17T15:46:38;25.50;27.00
52575;DHT22;38468;48.114;-1.684;2022-09-17T15:48:39;25.50;26.60
52575;DHT22;38468;48.114;-1.684;2022-09-17T15:50:54;25.50;26.60
52575;DHT22;38468;48.114;-1.684;2022-09-17T15:53:19;25.30;26.90